createdAt,value
2022-12-24T00:01:06.902Z,3.80
2022-12-24T00:03:37.183Z,3.95
2022-12-24T00:06:16.467Z,3.38
2022-12-24T00:08:43.175Z,3.53
2022-12-24T00:11:09.934Z,4.53
2022-12-24T00:13:36.698Z,4.20
2022-12-24T00:16:03.609Z,3.25
2022-12-24T00:18:30.330Z,3.83
2022-12-24T00:20:56.997Z,3.85
2022-12-24T00:23:23.904Z,4.18
2022-12-24T00:25:50.993Z,3.38
2022-12-24T00:28:17.840Z,3.95
2022-12-24T00:30:44.718Z,3.50
2022-12-24T00:33:11.624Z,4.15
2022-12-24T00:35:41.459Z,3.88
2022-12-24T00:38:09.195Z,3.65
2022-12-24T00:40:38.133Z,2.70
2022-12-24T00:43:04.853Z,3.67
2022-12-24T00:45:31.531Z,2.80
2022-12-24T00:47:58.209Z,3.55
2022-12-24T00:50:25.004Z,3.53
2022-12-24T00:52:51.686Z,3.67
2022-12-24T00:55:18.353Z,3.60
2022-12-24T00:57:45.069Z,3.83
2022-12-24T01:00:12.045Z,3.78
2022-12-24T01:02:39.061Z,3.30
2022-12-24T01:05:11.785Z,3.63
2022-12-24T01:07:44.607Z,4.18
2022-12-24T01:10:13.851Z,3.88
2022-12-24T01:12:40.911Z,3.60
2022-12-24T01:15:08.610Z,3.97
2022-12-24T01:17:35.840Z,3.60
2022-12-24T01:20:07.397Z,3.95
2022-12-24T01:22:34.393Z,2.97
2022-12-24T01:25:01.121Z,3.58
2022-12-24T01:27:27.868Z,3.75
2022-12-24T01:29:54.572Z,3.40
2022-12-24T01:32:21.249Z,3.35
2022-12-24T01:34:50.119Z,3.70
2022-12-24T01:37:16.788Z,3.30
2022-12-24T01:39:43.504Z,3.40
2022-12-24T01:42:39.533Z,3.42
2022-12-24T01:45:30.887Z,3.67
2022-12-24T01:47:57.665Z,4.28
2022-12-24T01:50:24.468Z,3.70
2022-12-24T01:52:51.176Z,3.67
2022-12-24T01:55:19.348Z,4.13
2022-12-24T01:57:59.082Z,3.55
2022-12-24T02:00:28.086Z,2.83
2022-12-24T02:02:55.148Z,2.47
2022-12-24T02:05:31.396Z,4.10
2022-12-24T02:08:00.402Z,3.63
2022-12-24T02:10:27.221Z,3.45
2022-12-24T02:12:54.335Z,2.85
2022-12-24T02:15:21.705Z,4.03
2022-12-24T02:18:17.021Z,2.97
2022-12-24T02:21:15.679Z,2.53
2022-12-24T02:24:15.785Z,3.60
2022-12-24T02:27:21.312Z,3.03
2022-12-24T02:30:05.887Z,3.63
2022-12-24T02:32:39.493Z,3.90
2022-12-24T02:35:30.065Z,4.32
2022-12-24T02:38:00.775Z,4.28
2022-12-24T02:41:01.781Z,3.63
2022-12-24T02:43:40.088Z,2.85
2022-12-24T02:46:14.562Z,4.03
2022-12-24T02:48:44.150Z,3.97
2022-12-24T02:51:13.474Z,3.92
2022-12-24T02:53:40.358Z,5.07
2022-12-24T02:56:21.302Z,3.58
2022-12-24T02:58:54.016Z,4.10
2022-12-24T03:01:26.902Z,4.28
2022-12-24T03:04:18.175Z,3.97
2022-12-24T03:07:02.941Z,4.40
2022-12-24T03:10:09.262Z,3.88
2022-12-24T03:12:44.021Z,3.63
2022-12-24T03:15:16.460Z,3.92
2022-12-24T03:17:48.330Z,3.30
2022-12-24T03:20:20.665Z,2.80
2022-12-24T03:22:49.970Z,3.22
2022-12-24T03:25:16.845Z,3.00
2022-12-24T03:27:44.607Z,2.90
2022-12-24T03:30:15.960Z,3.30
2022-12-24T03:32:42.668Z,3.03
2022-12-24T03:35:09.440Z,2.85
2022-12-24T03:37:38.523Z,2.67
2022-12-24T03:40:09.155Z,2.50
2022-12-24T03:42:36.006Z,2.83
2022-12-24T03:45:02.847Z,3.30
2022-12-24T03:47:30.648Z,2.92
2022-12-24T03:49:57.383Z,2.95
2022-12-24T03:52:24.538Z,2.53
2022-12-24T03:54:53.451Z,2.13
2022-12-24T03:57:20.196Z,2.40
2022-12-24T03:59:46.951Z,2.53
2022-12-24T04:02:13.839Z,2.50
2022-12-24T04:04:40.655Z,2.10
2022-12-24T04:07:09.719Z,2.13
2022-12-24T04:09:36.676Z,2.38
2022-12-24T04:12:03.633Z,1.60
2022-12-24T04:14:30.378Z,2.30
2022-12-24T04:16:58.338Z,1.83
2022-12-24T04:19:25.113Z,2.40
2022-12-24T04:21:51.823Z,1.75
2022-12-24T04:24:20.765Z,2.10
2022-12-24T04:26:49.734Z,2.50
2022-12-24T04:29:16.517Z,1.80
2022-12-24T04:31:45.824Z,1.65
2022-12-24T04:34:12.716Z,1.65
2022-12-24T04:36:39.479Z,1.83
2022-12-24T04:39:06.183Z,2.03
2022-12-24T04:41:32.880Z,1.60
2022-12-24T04:43:59.970Z,1.42
2022-12-24T04:46:30.603Z,1.63
2022-12-24T04:48:57.998Z,1.90
2022-12-24T04:51:25.945Z,2.03
2022-12-24T04:53:53.326Z,2.20
2022-12-24T04:56:25.548Z,2.47
2022-12-24T04:58:52.728Z,1.90
2022-12-24T05:01:22.386Z,2.28
2022-12-24T05:03:54.899Z,2.65
2022-12-24T05:06:26.859Z,1.98
2022-12-24T05:08:57.826Z,1.90
2022-12-24T05:11:25.293Z,1.95
2022-12-24T05:13:55.231Z,2.25
2022-12-24T05:16:23.395Z,2.60
2022-12-24T05:18:50.982Z,2.28
2022-12-24T05:21:21.460Z,2.13
2022-12-24T05:24:07.716Z,1.95
2022-12-24T05:26:48.970Z,2.00
2022-12-24T05:29:16.050Z,1.70
2022-12-24T05:31:44.987Z,2.75
2022-12-24T05:34:13.563Z,2.50
2022-12-24T05:36:40.488Z,2.10
2022-12-24T05:39:15.393Z,2.10
2022-12-24T05:44:12.132Z,1.95
2022-12-24T05:46:39.262Z,2.55
2022-12-24T05:49:06.098Z,2.88
2022-12-24T05:51:35.401Z,2.47
2022-12-24T05:54:02.136Z,3.05
2022-12-24T05:56:28.875Z,2.72
2022-12-24T05:58:55.646Z,3.05
2022-12-24T06:01:23.340Z,2.97
2022-12-24T06:03:53.089Z,2.80
2022-12-24T06:06:25.481Z,3.25
2022-12-24T06:08:53.669Z,3.35
2022-12-24T06:11:25.054Z,3.42
2022-12-24T06:13:55.228Z,3.13
2022-12-24T06:16:23.539Z,3.53
2022-12-24T06:18:50.929Z,3.72
2022-12-24T06:21:18.536Z,3.78
2022-12-24T06:23:46.148Z,3.70
2022-12-24T06:26:19.333Z,3.78
2022-12-24T06:28:47.042Z,4.28
2022-12-24T06:31:15.813Z,3.53
2022-12-24T06:33:42.862Z,3.97
2022-12-24T06:36:17.560Z,3.75
2022-12-24T06:38:47.807Z,3.50
2022-12-24T06:41:15.583Z,3.55
2022-12-24T06:43:48.136Z,3.63
2022-12-24T06:46:15.590Z,3.85
2022-12-24T06:48:46.725Z,3.40
2022-12-24T06:51:15.346Z,4.18
2022-12-24T06:53:42.264Z,3.90
2022-12-24T06:56:12.190Z,4.28
2022-12-24T06:58:40.588Z,3.88
2022-12-24T07:01:11.385Z,4.78
2022-12-24T07:03:38.949Z,4.15
2022-12-24T07:06:06.029Z,3.97
2022-12-24T07:08:36.415Z,4.60
2022-12-24T07:11:03.277Z,4.63
2022-12-24T07:13:30.086Z,4.32
2022-12-24T07:16:01.815Z,4.22
2022-12-24T07:18:28.904Z,4.80
2022-12-24T07:20:58.021Z,4.43
2022-12-24T07:23:25.052Z,4.32
2022-12-24T07:25:51.757Z,4.43
2022-12-24T07:28:23.905Z,5.38
2022-12-24T07:33:20.819Z,4.35
2022-12-24T07:35:52.229Z,4.38
2022-12-24T07:38:22.519Z,4.37
2022-12-24T07:40:57.386Z,4.40
2022-12-24T07:43:24.588Z,4.60
2022-12-24T07:45:54.313Z,4.80
2022-12-24T07:48:24.521Z,4.38
2022-12-24T07:50:51.889Z,4.05
2022-12-24T07:53:21.258Z,3.63
2022-12-24T07:55:47.942Z,4.00
2022-12-24T07:58:14.675Z,5.00
2022-12-24T08:00:41.367Z,3.60
2022-12-24T08:03:09.558Z,3.65
2022-12-24T08:05:36.903Z,4.78
2022-12-24T08:08:03.876Z,3.50
2022-12-24T08:10:30.600Z,4.75
2022-12-24T08:12:59.424Z,4.50
2022-12-24T08:15:26.164Z,4.47
2022-12-24T08:17:52.930Z,4.57
2022-12-24T08:20:23.235Z,4.38
2022-12-24T08:22:49.926Z,4.72
2022-12-24T08:25:16.729Z,4.20
2022-12-24T08:27:45.581Z,5.07
2022-12-24T08:30:18.967Z,5.07
2022-12-24T08:32:52.528Z,5.10
2022-12-24T08:35:19.198Z,4.40
2022-12-24T08:37:48.270Z,4.93
2022-12-24T08:40:15.266Z,4.63
2022-12-24T08:42:42.068Z,4.97
2022-12-24T08:45:10.035Z,4.22
2022-12-24T08:47:37.175Z,4.18
2022-12-24T08:50:08.818Z,4.53
2022-12-24T08:52:35.971Z,4.38
2022-12-24T08:55:03.225Z,3.25
2022-12-24T08:57:30.173Z,4.45
2022-12-24T08:59:59.463Z,3.47
2022-12-24T09:02:26.462Z,4.53
2022-12-24T09:04:53.437Z,4.78
2022-12-24T09:07:20.159Z,4.50
2022-12-24T09:09:47.416Z,4.45
2022-12-24T09:12:14.139Z,4.38
2022-12-24T09:14:40.901Z,5.20
2022-12-24T09:17:10.350Z,4.03
2022-12-24T09:19:37.268Z,4.95
2022-12-24T09:22:03.981Z,4.70
2022-12-24T09:24:30.769Z,3.90
2022-12-24T09:26:58.291Z,4.32
2022-12-24T09:29:25.602Z,4.57
2022-12-24T09:31:52.512Z,4.80
2022-12-24T09:34:20.303Z,4.70
2022-12-24T09:36:48.448Z,4.80
2022-12-24T09:39:15.594Z,4.75
2022-12-24T09:41:51.199Z,4.78
2022-12-24T09:47:01.241Z,4.32
2022-12-24T09:49:45.101Z,4.57
2022-12-24T09:52:16.404Z,3.40
2022-12-24T09:54:53.199Z,4.93
2022-12-24T09:57:30.120Z,5.00
2022-12-24T09:59:56.955Z,5.05
2022-12-24T10:02:23.965Z,4.55
2022-12-24T10:04:51.091Z,4.90
2022-12-24T10:07:23.836Z,4.90
2022-12-24T10:10:21.649Z,4.70
2022-12-24T10:13:08.512Z,4.72
2022-12-24T10:15:47.095Z,4.80
2022-12-24T10:18:37.791Z,5.13
2022-12-24T10:21:20.329Z,5.32
2022-12-24T10:23:59.511Z,5.25
2022-12-24T10:26:45.629Z,5.22
2022-12-24T10:32:17.317Z,4.88
2022-12-24T10:34:49.120Z,4.95
2022-12-24T10:37:24.307Z,4.25
2022-12-24T10:39:51.595Z,4.32
2022-12-24T10:42:19.645Z,4.65
2022-12-24T10:44:56.965Z,4.07
2022-12-24T10:47:24.574Z,5.32
2022-12-24T10:50:33.697Z,5.05
2022-12-24T10:53:18.845Z,4.70
2022-12-24T10:55:47.884Z,5.07
2022-12-24T10:58:18.854Z,4.53
2022-12-24T11:00:53.430Z,5.10
2022-12-24T11:03:29.668Z,5.72
2022-12-24T11:06:09.942Z,4.20
2022-12-24T11:08:39.810Z,5.53
2022-12-24T11:11:10.026Z,4.70
2022-12-24T11:13:53.088Z,4.60
2022-12-24T11:16:36.140Z,4.80
2022-12-24T11:19:05.997Z,5.05
2022-12-24T11:21:35.042Z,5.38
2022-12-24T11:24:16.060Z,4.45
2022-12-24T11:26:44.198Z,5.57
2022-12-24T11:29:19.373Z,4.18
2022-12-24T11:31:47.022Z,4.15
2022-12-24T11:34:31.500Z,5.10
2022-12-24T11:37:22.203Z,3.53
2022-12-24T11:40:01.491Z,4.38
2022-12-24T11:42:38.002Z,4.90
2022-12-24T11:45:27.683Z,4.68
2022-12-24T11:47:55.305Z,6.13
2022-12-24T11:50:24.443Z,3.70
2022-12-24T11:53:03.719Z,4.43
2022-12-24T11:55:52.944Z,4.10
2022-12-24T11:58:38.453Z,5.70
2022-12-24T12:01:26.115Z,3.72
2022-12-24T12:04:06.420Z,4.43
2022-12-24T12:06:49.485Z,4.85
2022-12-24T12:09:31.431Z,4.15
2022-12-24T12:12:07.065Z,4.38
2022-12-24T12:17:14.385Z,4.15
2022-12-24T12:19:49.368Z,4.75
2022-12-24T12:22:45.515Z,4.13
2022-12-24T12:25:40.327Z,5.00
2022-12-24T12:28:15.393Z,5.00
2022-12-24T12:30:44.506Z,5.05
2022-12-24T12:33:25.679Z,4.95
2022-12-24T12:35:55.535Z,5.72
2022-12-24T12:38:25.865Z,3.78
2022-12-24T12:40:58.408Z,4.85
2022-12-24T12:43:32.768Z,4.60
2022-12-24T12:46:09.678Z,4.55
2022-12-24T12:49:00.296Z,5.15
2022-12-24T12:51:40.635Z,4.38
2022-12-24T12:54:07.311Z,4.35
2022-12-24T12:56:36.339Z,4.43
2022-12-24T12:59:08.211Z,4.68
2022-12-24T13:01:44.245Z,4.15
2022-12-24T13:04:47.997Z,4.68
2022-12-24T13:07:37.990Z,3.72
2022-12-24T13:10:23.207Z,4.32
2022-12-24T13:13:36.170Z,4.78
2022-12-24T13:16:17.358Z,3.97
2022-12-24T13:18:50.188Z,4.38
2022-12-24T13:21:25.860Z,5.07
2022-12-24T13:24:14.771Z,5.10
2022-12-24T13:26:45.183Z,7.68
2022-12-24T13:29:42.718Z,4.25
2022-12-24T13:32:23.828Z,5.43
2022-12-24T13:35:00.980Z,3.60
2022-12-24T13:37:27.654Z,3.63
2022-12-24T13:40:06.765Z,4.70
2022-12-24T13:42:48.527Z,3.83
2022-12-24T13:45:30.737Z,11.05
2022-12-24T13:48:06.805Z,4.50
2022-12-24T13:50:37.766Z,3.83
2022-12-24T13:53:06.523Z,3.58
2022-12-24T13:55:34.443Z,3.50
2022-12-24T13:58:03.951Z,3.45
2022-12-24T14:00:56.837Z,3.63
2022-12-24T14:03:29.756Z,3.67
2022-12-24T14:06:01.286Z,4.00
2022-12-24T14:08:37.886Z,3.80
2022-12-24T14:11:06.612Z,3.53
2022-12-24T14:13:39.500Z,3.63
2022-12-24T14:16:20.772Z,4.10
2022-12-24T14:19:02.456Z,3.30
2022-12-24T14:21:36.524Z,3.22
2022-12-24T14:24:07.682Z,3.20
2022-12-24T14:26:43.472Z,4.10
2022-12-24T14:29:36.341Z,2.92
2022-12-24T14:32:12.307Z,3.53
2022-12-24T14:34:39.103Z,4.13
2022-12-24T14:37:06.318Z,3.90
2022-12-24T14:39:36.050Z,3.28
2022-12-24T14:42:23.049Z,4.15
2022-12-24T14:44:49.805Z,3.97
2022-12-24T14:47:41.759Z,3.65
2022-12-24T14:50:29.635Z,3.67
2022-12-24T14:53:19.352Z,4.53
2022-12-24T14:55:47.782Z,4.47
2022-12-24T14:58:46.684Z,4.07
2022-12-24T15:01:28.875Z,3.60
2022-12-24T15:04:04.614Z,4.05
2022-12-24T15:06:35.118Z,4.55
2022-12-24T15:09:02.114Z,3.70
2022-12-24T15:11:32.220Z,4.25
2022-12-24T15:14:00.615Z,4.25
2022-12-24T15:16:33.551Z,4.40
2022-12-24T15:19:04.405Z,5.15
2022-12-24T15:21:33.437Z,4.30
2022-12-24T15:24:00.371Z,4.32
2022-12-24T15:26:37.641Z,4.03
2022-12-24T15:29:21.165Z,4.72
2022-12-24T15:31:54.417Z,4.88
2022-12-24T15:34:40.667Z,4.50
2022-12-24T15:37:31.164Z,5.78
2022-12-24T15:40:04.587Z,4.72
2022-12-24T15:42:31.393Z,4.70
2022-12-24T15:45:03.419Z,4.20
2022-12-24T15:47:38.150Z,4.75
2022-12-24T15:50:16.692Z,5.30
2022-12-24T15:52:46.627Z,4.53
2022-12-24T15:55:32.512Z,5.10
2022-12-24T15:57:59.477Z,4.53
2022-12-24T16:00:31.100Z,4.60
2022-12-24T16:03:11.956Z,5.10
2022-12-24T16:05:39.997Z,4.60
2022-12-24T16:08:09.597Z,4.45
2022-12-24T16:10:42.275Z,4.70
2022-12-24T16:13:30.214Z,4.63
2022-12-24T16:16:08.306Z,5.40
2022-12-24T16:18:51.599Z,5.03
2022-12-24T16:21:26.296Z,5.15
2022-12-24T16:23:56.619Z,5.97
2022-12-24T16:26:23.695Z,8.02
2022-12-24T16:28:50.461Z,5.43
2022-12-24T16:31:36.296Z,6.18
2022-12-24T16:34:05.807Z,5.60
2022-12-24T16:36:33.091Z,6.25
2022-12-24T16:39:18.212Z,6.28
2022-12-24T16:42:03.915Z,5.60
2022-12-24T16:44:30.627Z,6.43
2022-12-24T16:47:00.250Z,6.32
2022-12-24T16:49:27.800Z,6.35
2022-12-24T16:51:54.802Z,6.57
2022-12-24T16:54:21.565Z,7.03
2022-12-24T16:56:48.321Z,7.25
2022-12-24T16:59:22.843Z,6.88
2022-12-24T17:01:50.735Z,6.95
2022-12-24T17:04:18.872Z,6.00
2022-12-24T17:06:49.922Z,6.78
2022-12-24T17:09:17.099Z,7.22
2022-12-24T17:11:43.848Z,7.40
2022-12-24T17:14:19.904Z,6.88
2022-12-24T17:16:47.261Z,6.95
2022-12-24T17:19:14.043Z,6.57
2022-12-24T17:21:40.980Z,7.20
2022-12-24T17:24:08.898Z,6.97
2022-12-24T17:26:35.849Z,6.45
2022-12-24T17:29:05.055Z,6.63
2022-12-24T17:31:32.867Z,6.30
2022-12-24T17:34:00.067Z,6.00
2022-12-24T17:36:27.070Z,10.90
2022-12-24T17:38:53.747Z,7.95
2022-12-24T17:41:21.171Z,9.93
2022-12-24T17:43:48.800Z,9.32
2022-12-24T17:46:22.344Z,11.02
2022-12-24T17:48:50.595Z,10.85
2022-12-24T17:51:20.475Z,10.82
2022-12-24T17:53:47.830Z,11.60
2022-12-24T17:56:15.899Z,11.98
2022-12-24T17:58:44.253Z,12.75
2022-12-24T18:01:17.898Z,11.38
2022-12-24T18:03:45.584Z,11.00
2022-12-24T18:06:13.602Z,11.32
2022-12-24T18:08:41.350Z,11.40
2022-12-24T18:11:21.230Z,11.05
2022-12-24T18:13:48.742Z,11.07
2022-12-24T18:16:18.289Z,10.00
2022-12-24T18:18:45.769Z,9.45
2022-12-24T18:21:12.652Z,9.40
2022-12-24T18:23:42.586Z,9.77
2022-12-24T18:26:10.218Z,8.55
2022-12-24T18:28:40.357Z,9.07
2022-12-24T18:31:11.946Z,7.22
2022-12-24T18:33:41.612Z,7.38
2022-12-24T18:36:09.064Z,8.68
2022-12-24T18:38:36.163Z,8.02
2022-12-24T18:41:04.256Z,7.97
2022-12-24T18:43:31.218Z,8.65
2022-12-24T18:45:57.965Z,8.07
2022-12-24T18:48:26.882Z,7.85
2022-12-24T18:50:58.255Z,7.75
2022-12-24T18:53:28.285Z,7.60
2022-12-24T18:55:54.990Z,8.07
2022-12-24T18:58:21.777Z,7.90
2022-12-24T19:00:48.532Z,8.50
2022-12-24T19:03:16.722Z,8.40
2022-12-24T19:05:43.685Z,7.25
2022-12-24T19:08:37.786Z,8.00
2022-12-24T19:10:57.164Z,7.28
2022-12-24T19:13:23.911Z,7.65
2022-12-24T19:15:50.743Z,6.85
2022-12-24T19:18:17.494Z,7.63
2022-12-24T19:20:47.234Z,7.35
2022-12-24T19:23:13.977Z,7.63
2022-12-24T19:25:40.751Z,8.48
2022-12-24T19:28:10.462Z,8.68
2022-12-24T19:30:45.235Z,8.43
2022-12-24T19:33:11.988Z,8.00
2022-12-24T19:35:38.729Z,8.65
2022-12-24T19:38:05.451Z,8.98
2022-12-24T19:40:32.256Z,9.40
2022-12-24T19:42:58.963Z,9.82
2022-12-24T19:45:25.745Z,8.60
2022-12-24T19:47:52.590Z,9.77
2022-12-24T19:50:19.581Z,8.50
2022-12-24T19:52:46.855Z,9.32
2022-12-24T19:55:15.100Z,8.48
2022-12-24T19:57:46.795Z,7.68
2022-12-24T20:00:13.972Z,7.72
2022-12-24T20:02:40.954Z,8.07
2022-12-24T20:05:08.559Z,8.45
2022-12-24T20:07:35.433Z,8.32
2022-12-24T20:10:02.209Z,8.90
2022-12-24T20:12:29.019Z,8.40
2022-12-24T20:14:57.008Z,10.07
2022-12-24T20:17:23.866Z,7.63
2022-12-24T20:19:50.836Z,9.07
2022-12-24T20:22:20.101Z,8.80
2022-12-24T20:24:49.596Z,8.10
2022-12-24T20:27:17.134Z,7.32
2022-12-24T20:29:43.785Z,7.97
2022-12-24T20:32:10.593Z,7.65
2022-12-24T20:34:37.356Z,7.22
2022-12-24T20:37:04.208Z,7.20
2022-12-24T20:39:30.877Z,7.90
2022-12-24T20:41:57.721Z,8.35
2022-12-24T20:44:24.432Z,7.22
2022-12-24T20:46:52.316Z,7.65
2022-12-24T20:49:21.838Z,7.60
2022-12-24T20:51:48.554Z,6.63
2022-12-24T20:54:15.682Z,6.50
2022-12-24T20:56:42.556Z,5.68
2022-12-24T20:59:09.306Z,5.82
2022-12-24T21:01:36.179Z,6.68
2022-12-24T21:04:05.481Z,6.60
2022-12-24T21:06:33.486Z,6.75
2022-12-24T21:09:00.780Z,6.75
2022-12-24T21:11:45.979Z,7.75
2022-12-24T21:14:12.880Z,6.67
2022-12-24T21:16:40.270Z,7.03
2022-12-24T21:19:08.873Z,7.85
2022-12-24T21:21:36.543Z,7.38
2022-12-24T21:24:04.619Z,8.02
2022-12-24T21:26:32.144Z,7.70
2022-12-24T21:28:59.673Z,7.35
2022-12-24T21:31:26.422Z,7.20
2022-12-24T21:33:53.137Z,6.97
2022-12-24T21:36:20.831Z,6.70
2022-12-24T21:38:47.931Z,7.85
2022-12-24T21:41:17.754Z,7.20
2022-12-24T21:43:45.379Z,7.00
2022-12-24T21:46:15.641Z,7.05
2022-12-24T21:49:00.778Z,6.70
2022-12-24T21:51:28.580Z,6.70
2022-12-24T21:54:14.458Z,7.07
2022-12-24T21:56:59.856Z,7.22
2022-12-24T21:59:27.451Z,6.65
2022-12-24T22:01:55.004Z,7.28
2022-12-24T22:04:21.912Z,7.18
2022-12-24T22:07:07.018Z,6.18
2022-12-24T22:09:54.606Z,7.07
2022-12-24T22:12:21.326Z,6.82
2022-12-24T22:14:48.319Z,6.72
2022-12-24T22:17:19.736Z,6.00
2022-12-24T22:19:49.720Z,6.33
2022-12-24T22:22:18.758Z,7.38
2022-12-24T22:24:45.452Z,7.75
2022-12-24T22:27:14.367Z,7.28
2022-12-24T22:29:41.120Z,6.88
2022-12-24T22:32:07.908Z,7.30
2022-12-24T22:34:36.065Z,7.45
2022-12-24T22:37:02.852Z,7.65
2022-12-24T22:39:29.640Z,6.50
2022-12-24T22:41:59.163Z,6.88
2022-12-24T22:44:27.340Z,7.10
2022-12-24T22:46:54.040Z,7.18
2022-12-24T22:49:21.088Z,7.30
2022-12-24T22:51:47.846Z,7.38
2022-12-24T22:54:16.901Z,7.32
2022-12-24T22:56:43.913Z,6.55
2022-12-24T22:59:13.908Z,6.75
2022-12-24T23:01:43.848Z,6.97
2022-12-24T23:04:14.469Z,6.63
2022-12-24T23:06:42.201Z,7.75
2022-12-24T23:09:11.514Z,7.10
2022-12-24T23:11:39.748Z,6.32
2022-12-24T23:14:32.625Z,5.65
2022-12-24T23:16:59.393Z,6.00
2022-12-24T23:19:26.077Z,6.05
2022-12-24T23:21:52.848Z,6.07
2022-12-24T23:24:19.543Z,7.25
2022-12-24T23:26:46.246Z,6.95
2022-12-24T23:29:12.937Z,7.68
2022-12-24T23:31:39.755Z,7.28
2022-12-24T23:34:06.454Z,7.22
2022-12-24T23:36:33.506Z,6.00
2022-12-24T23:39:00.247Z,6.32
2022-12-24T23:41:27.222Z,6.30
2022-12-24T23:43:53.942Z,6.35
2022-12-24T23:46:21.298Z,6.40
2022-12-24T23:48:48.545Z,7.85
2022-12-24T23:51:19.007Z,6.55
2022-12-24T23:53:45.999Z,6.47
2022-12-24T23:56:12.900Z,7.22
2022-12-24T23:58:41.411Z,6.28
